createdAt,value
2019-01-25T00:01:46.776Z,13.68
2019-01-25T00:04:17.091Z,12.50
2019-01-25T00:06:47.266Z,14.83
2019-01-25T00:09:17.471Z,12.33
2019-01-25T00:11:47.615Z,13.38
2019-01-25T00:14:17.790Z,12.98
2019-01-25T00:16:47.967Z,14.93
2019-01-25T00:19:18.127Z,12.55
2019-01-25T00:21:48.298Z,14.43
2019-01-25T00:24:18.468Z,12.80
2019-01-25T00:26:48.619Z,12.60
2019-01-25T00:29:18.796Z,12.95
2019-01-25T00:31:49.001Z,13.88
2019-01-25T00:34:19.167Z,12.70
2019-01-25T00:36:49.311Z,14.30
2019-01-25T00:39:19.706Z,15.65
2019-01-25T00:41:49.849Z,14.10
2019-01-25T00:44:20.007Z,16.42
2019-01-25T00:46:50.262Z,15.23
2019-01-25T00:49:20.416Z,16.20
2019-01-25T00:51:50.554Z,13.53
2019-01-25T00:54:20.734Z,14.03
2019-01-25T00:56:50.981Z,14.95
2019-01-25T00:59:21.169Z,16.02
2019-01-25T01:01:51.337Z,14.50
2019-01-25T01:04:21.511Z,12.45
2019-01-25T01:06:51.721Z,14.95
2019-01-25T01:09:21.945Z,11.97
2019-01-25T01:11:52.056Z,12.88
2019-01-25T01:14:22.214Z,15.15
2019-01-25T01:16:52.415Z,17.57
2019-01-25T01:19:22.571Z,16.30
2019-01-25T01:21:52.756Z,14.55
2019-01-25T01:24:22.901Z,16.57
2019-01-25T01:26:53.045Z,17.10
2019-01-25T01:29:23.247Z,14.45
2019-01-25T01:31:53.420Z,15.18
2019-01-25T01:34:23.599Z,13.80
2019-01-25T01:36:53.759Z,14.30
2019-01-25T01:39:23.942Z,13.50
2019-01-25T01:41:54.130Z,15.20
2019-01-25T01:44:24.432Z,13.35
2019-01-25T01:46:54.596Z,15.50
2019-01-25T01:49:24.789Z,13.55
2019-01-25T01:51:54.948Z,15.53
2019-01-25T01:54:26.370Z,12.73
2019-01-25T01:56:56.440Z,14.23
2019-01-25T01:59:26.620Z,17.15
2019-01-25T02:01:56.782Z,17.32
2019-01-25T02:04:26.967Z,14.18
2019-01-25T02:06:57.110Z,14.40
2019-01-25T02:09:27.265Z,14.10
2019-01-25T02:11:58.036Z,18.50
2019-01-25T02:14:28.214Z,14.20
2019-01-25T02:16:58.397Z,14.25
2019-01-25T02:19:28.568Z,16.37
2019-01-25T02:21:58.720Z,14.15
2019-01-25T02:24:28.892Z,16.87
2019-01-25T02:26:59.045Z,13.93
2019-01-25T02:29:29.197Z,13.80
2019-01-25T02:31:59.360Z,14.87
2019-01-25T02:34:29.508Z,14.40
2019-01-25T02:36:59.664Z,14.60
2019-01-25T02:39:29.809Z,14.30
2019-01-25T02:41:59.984Z,15.58
2019-01-25T02:44:30.149Z,14.98
2019-01-25T02:47:00.309Z,15.40
2019-01-25T02:49:30.477Z,17.10
2019-01-25T02:52:00.651Z,16.87
2019-01-25T02:54:30.820Z,14.78
2019-01-25T02:57:00.979Z,15.78
2019-01-25T02:59:31.123Z,14.38
2019-01-25T03:02:01.761Z,15.32
2019-01-25T03:04:31.928Z,12.73
2019-01-25T03:07:02.097Z,15.05
2019-01-25T03:09:32.254Z,13.40
2019-01-25T03:12:02.428Z,16.17
2019-01-25T03:14:32.559Z,16.35
2019-01-25T03:17:02.710Z,12.98
2019-01-25T03:19:32.910Z,12.80
2019-01-25T03:22:03.037Z,13.38
2019-01-25T03:24:33.236Z,12.73
2019-01-25T03:27:03.447Z,10.93
2019-01-25T03:29:33.683Z,14.20
2019-01-25T03:32:03.829Z,14.00
2019-01-25T03:34:34.030Z,12.93
2019-01-25T03:37:04.238Z,12.75
2019-01-25T03:39:34.392Z,11.43
2019-01-25T03:42:04.931Z,14.55
2019-01-25T03:44:35.080Z,13.72
2019-01-25T03:47:05.222Z,14.07
2019-01-25T03:49:35.380Z,10.75
2019-01-25T03:52:05.531Z,15.75
2019-01-25T03:54:35.686Z,12.23
2019-01-25T03:57:06.059Z,15.58
2019-01-25T03:59:36.227Z,14.60
2019-01-25T04:02:06.549Z,16.97
2019-01-25T04:04:36.731Z,14.58
2019-01-25T04:07:06.875Z,15.08
2019-01-25T04:09:37.098Z,14.35
2019-01-25T04:12:07.448Z,15.78
2019-01-25T04:14:37.598Z,14.58
2019-01-25T04:17:07.797Z,14.47
2019-01-25T04:19:37.927Z,13.78
2019-01-25T04:22:08.092Z,18.75
2019-01-25T04:24:38.296Z,13.40
2019-01-25T04:27:08.478Z,13.13
2019-01-25T04:29:38.607Z,14.13
2019-01-25T04:32:08.783Z,15.23
2019-01-25T04:34:38.934Z,13.93
2019-01-25T04:37:09.097Z,14.65
2019-01-25T04:39:39.239Z,13.43
2019-01-25T04:42:09.410Z,16.90
2019-01-25T04:44:39.635Z,14.80
2019-01-25T04:47:09.841Z,15.90
2019-01-25T04:49:40.009Z,16.32
2019-01-25T04:52:13.610Z,16.00
2019-01-25T04:54:43.799Z,15.78
2019-01-25T04:57:14.036Z,15.25
2019-01-25T04:59:44.271Z,15.90
2019-01-25T05:02:14.478Z,17.62
2019-01-25T05:04:44.655Z,16.50
2019-01-25T05:07:14.893Z,17.45
2019-01-25T05:09:45.212Z,14.63
2019-01-25T05:12:15.497Z,16.07
2019-01-25T05:14:45.658Z,16.57
2019-01-25T05:17:15.819Z,17.40
2019-01-25T05:19:46.292Z,16.32
2019-01-25T05:22:16.440Z,16.07
2019-01-25T05:24:46.603Z,16.75
2019-01-25T05:27:16.838Z,18.50
2019-01-25T05:29:53.253Z,16.17
2019-01-25T05:32:23.783Z,14.63
2019-01-25T05:34:53.944Z,17.45
2019-01-25T05:37:24.104Z,14.85
2019-01-25T05:39:54.286Z,18.37
2019-01-25T05:42:24.429Z,18.90
2019-01-25T05:44:54.575Z,15.35
2019-01-25T05:47:24.738Z,16.30
2019-01-25T05:49:54.902Z,18.45
2019-01-25T05:52:25.074Z,17.20
2019-01-25T05:54:55.209Z,17.95
2019-01-25T05:57:25.377Z,20.48
2019-01-25T05:59:55.540Z,18.75
2019-01-25T06:02:25.727Z,15.40
2019-01-25T06:04:55.881Z,16.80
2019-01-25T06:07:28.154Z,19.23
2019-01-25T06:09:58.296Z,16.00
2019-01-25T06:12:28.465Z,14.63
2019-01-25T06:14:58.622Z,17.23
2019-01-25T06:17:28.787Z,17.10
2019-01-25T06:19:58.945Z,17.07
2019-01-25T06:22:29.112Z,16.05
2019-01-25T06:24:59.265Z,18.85
2019-01-25T06:27:29.847Z,18.52
2019-01-25T06:30:00.000Z,17.45
2019-01-25T06:32:30.143Z,20.45
2019-01-25T06:35:00.330Z,17.45
2019-01-25T06:37:30.482Z,18.55
2019-01-25T06:40:00.664Z,17.73
2019-01-25T06:42:30.817Z,16.17
2019-01-25T06:45:01.008Z,18.48
2019-01-25T06:47:31.193Z,16.35
2019-01-25T06:50:01.363Z,17.12
2019-01-25T06:52:31.527Z,19.23
2019-01-25T06:55:01.690Z,25.13
2019-01-25T06:57:33.523Z,23.47
2019-01-25T07:00:05.736Z,20.70
2019-01-25T07:02:35.903Z,18.05
2019-01-25T07:05:08.619Z,16.82
2019-01-25T07:07:39.844Z,15.90
2019-01-25T07:10:14.577Z,17.20
2019-01-25T07:12:44.806Z,16.57
2019-01-25T07:15:16.734Z,20.25
2019-01-25T07:17:46.960Z,18.00
2019-01-25T07:20:18.212Z,17.00
2019-01-25T07:22:48.388Z,17.62
2019-01-25T07:25:18.706Z,17.62
2019-01-25T07:27:48.884Z,20.05
2019-01-25T07:30:19.337Z,19.10
2019-01-25T07:32:49.545Z,18.25
2019-01-25T07:35:19.686Z,18.40
2019-01-25T07:37:49.893Z,22.05
2019-01-25T07:40:20.221Z,20.25
2019-01-25T07:42:50.331Z,19.10
2019-01-25T07:45:20.576Z,18.00
2019-01-25T07:47:50.891Z,18.85
2019-01-25T07:50:21.371Z,19.80
2019-01-25T07:52:51.591Z,16.35
2019-01-25T07:55:21.773Z,20.70
2019-01-25T07:57:51.933Z,16.07
2019-01-25T08:00:22.283Z,17.82
2019-01-25T08:02:52.489Z,17.30
2019-01-25T08:05:22.580Z,16.02
2019-01-25T08:07:53.222Z,17.50
2019-01-25T08:10:24.090Z,17.35
2019-01-25T08:12:54.722Z,17.98
2019-01-25T08:15:26.997Z,19.02
2019-01-25T08:17:57.142Z,18.90
2019-01-25T08:20:27.311Z,18.65
2019-01-25T08:22:57.477Z,17.62
2019-01-25T08:25:27.695Z,19.25
2019-01-25T08:27:58.024Z,16.00
2019-01-25T08:30:28.180Z,18.77
2019-01-25T08:32:58.317Z,22.42
2019-01-25T08:35:28.479Z,18.05
2019-01-25T08:37:58.677Z,14.65
2019-01-25T08:40:29.285Z,19.52
2019-01-25T08:42:59.467Z,18.70
2019-01-25T08:45:29.715Z,18.82
2019-01-25T08:47:59.996Z,22.80
2019-01-25T08:50:30.246Z,20.55
2019-01-25T08:53:00.370Z,21.90
2019-01-25T08:55:30.571Z,20.08
2019-01-25T08:58:00.756Z,23.40
2019-01-25T09:00:30.909Z,19.87
2019-01-25T09:03:01.141Z,19.70
2019-01-25T09:05:31.373Z,20.02
2019-01-25T09:08:01.544Z,20.12
2019-01-25T09:10:31.811Z,20.40
2019-01-25T09:13:01.952Z,22.20
2019-01-25T09:15:34.931Z,19.70
2019-01-25T09:18:05.626Z,21.17
2019-01-25T09:20:35.832Z,22.27
2019-01-25T09:23:06.068Z,19.25
2019-01-25T09:25:36.382Z,21.42
2019-01-25T09:28:06.922Z,15.70
2019-01-25T09:30:37.094Z,20.80
2019-01-25T09:33:07.415Z,22.80
2019-01-25T09:35:37.616Z,23.18
2019-01-25T09:38:08.427Z,21.90
2019-01-25T09:40:38.601Z,21.85
2019-01-25T09:43:08.739Z,16.10
2019-01-25T09:45:38.887Z,21.60
2019-01-25T09:48:09.123Z,24.43
2019-01-25T09:50:39.311Z,18.70
2019-01-25T09:53:09.464Z,16.07
2019-01-25T09:55:39.610Z,20.40
2019-01-25T09:58:14.845Z,19.10
2019-01-25T10:01:04.249Z,20.30
2019-01-25T10:03:34.422Z,22.13
2019-01-25T10:06:04.766Z,21.15
2019-01-25T10:08:34.909Z,20.72
2019-01-25T10:11:05.155Z,20.48
2019-01-25T10:13:35.330Z,21.57
2019-01-25T10:16:06.063Z,20.23
2019-01-25T10:18:36.231Z,18.02
2019-01-25T10:21:06.420Z,20.45
2019-01-25T10:23:39.143Z,19.75
2019-01-25T10:26:08.420Z,24.80
2019-01-25T10:28:38.596Z,21.65
2019-01-25T10:31:08.755Z,20.20
2019-01-25T10:33:39.655Z,29.65
2019-01-25T10:36:09.824Z,23.40
2019-01-25T10:38:40.011Z,18.00
2019-01-25T10:41:10.168Z,19.35
2019-01-25T10:43:40.337Z,24.02
2019-01-25T10:46:10.521Z,22.98
2019-01-25T10:48:40.687Z,23.83
2019-01-25T10:51:10.824Z,25.48
2019-01-25T10:53:41.089Z,22.93
2019-01-25T10:56:11.346Z,19.50
2019-01-25T10:58:41.537Z,18.60
2019-01-25T11:01:11.998Z,23.15
2019-01-25T11:03:42.197Z,24.50
2019-01-25T11:06:14.042Z,22.65
2019-01-25T11:08:45.235Z,23.22
2019-01-25T11:11:15.550Z,25.45
2019-01-25T11:13:45.722Z,22.90
2019-01-25T11:16:16.000Z,23.87
2019-01-25T11:18:46.174Z,23.85
2019-01-25T11:21:16.348Z,26.95
2019-01-25T11:23:46.501Z,21.05
2019-01-25T11:26:16.761Z,24.47
2019-01-25T11:28:46.975Z,26.05
2019-01-25T11:31:17.789Z,23.18
2019-01-25T11:33:48.005Z,21.73
2019-01-25T11:36:18.142Z,23.15
2019-01-25T11:38:48.372Z,21.52
2019-01-25T11:41:18.564Z,24.60
2019-01-25T11:43:48.719Z,26.02
2019-01-25T11:46:19.000Z,26.87
2019-01-25T11:48:49.226Z,23.83
2019-01-25T11:51:20.032Z,21.70
2019-01-25T11:53:50.307Z,17.05
2019-01-25T11:56:20.467Z,24.25
2019-01-25T11:58:50.603Z,23.35
2019-01-25T12:01:20.839Z,21.62
2019-01-25T12:03:50.978Z,24.10
2019-01-25T12:06:21.163Z,25.50
2019-01-25T12:08:51.358Z,20.92
2019-01-25T12:11:21.783Z,18.00
2019-01-25T12:13:51.936Z,22.13
2019-01-25T12:16:22.092Z,24.35
2019-01-25T12:18:52.500Z,28.40
2019-01-25T12:21:22.624Z,30.60
2019-01-25T12:23:52.755Z,23.77
2019-01-25T12:26:23.007Z,28.95
2019-01-25T12:28:53.196Z,26.33
2019-01-25T12:31:23.406Z,22.00
2019-01-25T12:33:54.174Z,21.80
2019-01-25T12:36:24.431Z,25.17
2019-01-25T12:38:54.671Z,21.90
2019-01-25T12:41:25.143Z,21.55
2019-01-25T12:43:57.044Z,23.92
2019-01-25T12:46:27.277Z,17.73
2019-01-25T12:48:57.490Z,21.82
2019-01-25T12:51:27.629Z,24.20
2019-01-25T12:53:57.881Z,23.38
2019-01-25T12:56:28.049Z,24.12
2019-01-25T12:58:58.190Z,28.65
2019-01-25T13:01:34.849Z,24.30
2019-01-25T13:04:01.976Z,25.45
2019-01-25T13:06:32.172Z,24.77
2019-01-25T13:09:02.339Z,23.73
2019-01-25T13:11:32.536Z,29.15
2019-01-25T13:14:02.726Z,26.70
2019-01-25T13:16:32.874Z,24.77
2019-01-25T13:19:03.078Z,26.70
2019-01-25T13:21:33.264Z,29.27
2019-01-25T13:24:03.473Z,21.35
2019-01-25T13:26:33.693Z,24.20
2019-01-25T13:29:03.948Z,21.73
2019-01-25T13:31:34.205Z,26.35
2019-01-25T13:34:05.318Z,22.35
2019-01-25T13:36:35.587Z,24.43
2019-01-25T13:39:08.395Z,27.40
2019-01-25T13:41:38.575Z,29.35
2019-01-25T13:44:08.745Z,24.80
2019-01-25T13:46:38.894Z,25.85
2019-01-25T13:49:09.053Z,24.32
2019-01-25T13:51:39.208Z,19.75
2019-01-25T13:54:09.344Z,25.52
2019-01-25T13:56:39.550Z,23.73
2019-01-25T13:59:09.723Z,17.65
2019-01-25T14:01:41.192Z,25.00
2019-01-25T14:04:11.340Z,23.22
2019-01-25T14:06:41.550Z,26.07
2019-01-25T14:09:11.709Z,25.48
2019-01-25T14:11:41.940Z,21.35
2019-01-25T14:14:12.522Z,27.20
2019-01-25T14:16:42.681Z,26.50
2019-01-25T14:19:12.832Z,23.83
2019-01-25T14:21:42.994Z,22.55
2019-01-25T14:24:16.698Z,23.22
2019-01-25T14:26:45.131Z,27.30
2019-01-25T14:29:15.282Z,23.70
2019-01-25T14:31:45.505Z,23.65
2019-01-25T14:34:15.954Z,26.80
2019-01-25T14:36:46.120Z,25.75
2019-01-25T14:39:16.284Z,22.67
2019-01-25T14:41:46.452Z,26.00
2019-01-25T14:44:16.597Z,23.42
2019-01-25T14:46:46.769Z,27.27
2019-01-25T14:49:16.920Z,22.52
2019-01-25T14:51:47.099Z,26.62
2019-01-25T14:54:17.283Z,21.62
2019-01-25T14:56:47.423Z,24.43
2019-01-25T14:59:17.646Z,25.27
2019-01-25T15:01:47.831Z,23.02
2019-01-25T15:04:17.997Z,23.90
2019-01-25T15:06:48.143Z,25.15
2019-01-25T15:09:18.328Z,21.48
2019-01-25T15:11:50.108Z,24.23
2019-01-25T15:14:20.244Z,23.75
2019-01-25T15:16:50.420Z,23.12
2019-01-25T15:19:20.571Z,23.77
2019-01-25T15:21:50.924Z,19.90
2019-01-25T15:24:21.185Z,21.23
2019-01-25T15:26:51.325Z,25.25
2019-01-25T15:29:21.485Z,20.88
2019-01-25T15:31:51.700Z,23.20
2019-01-25T15:34:22.024Z,22.65
2019-01-25T15:36:52.176Z,27.15
2019-01-25T15:39:22.333Z,22.32
2019-01-25T15:41:52.600Z,22.05
2019-01-25T15:44:22.803Z,22.10
2019-01-25T15:46:52.934Z,22.33
2019-01-25T15:49:23.084Z,22.40
2019-01-25T15:51:53.231Z,23.67
2019-01-25T15:54:23.430Z,24.80
2019-01-25T15:56:53.597Z,19.55
2019-01-25T15:59:23.753Z,18.25
2019-01-25T16:01:53.915Z,22.62
2019-01-25T16:04:24.104Z,19.60
2019-01-25T16:06:54.335Z,18.12
2019-01-25T16:09:24.482Z,18.65
2019-01-25T16:11:54.964Z,20.68
2019-01-25T16:14:25.205Z,18.05
2019-01-25T16:16:55.335Z,20.48
2019-01-25T16:19:25.544Z,17.60
2019-01-25T16:21:55.672Z,22.93
2019-01-25T16:24:25.836Z,20.43
2019-01-25T16:26:56.042Z,18.87
2019-01-25T16:29:26.230Z,18.80
2019-01-25T16:31:57.077Z,16.73
2019-01-25T16:34:27.605Z,18.75
2019-01-25T16:36:58.165Z,17.07
2019-01-25T16:39:28.445Z,18.80
2019-01-25T16:41:58.598Z,20.65
2019-01-25T16:44:28.807Z,17.25
2019-01-25T16:46:59.033Z,19.55
2019-01-25T16:49:29.194Z,19.17
2019-01-25T16:51:59.377Z,16.87
2019-01-25T16:54:29.609Z,18.77
2019-01-25T16:56:59.845Z,16.82
2019-01-25T16:59:30.275Z,16.37
2019-01-25T17:02:00.455Z,16.00
2019-01-25T17:04:30.844Z,13.72
2019-01-25T17:07:01.046Z,12.58
2019-01-25T17:09:31.216Z,11.00
2019-01-25T17:12:01.417Z,13.98
2019-01-25T17:14:33.579Z,11.65
2019-01-25T17:17:03.461Z,8.95
2019-01-25T17:19:33.615Z,11.25
2019-01-25T17:22:03.861Z,10.90
2019-01-25T17:24:34.031Z,8.75
2019-01-25T17:27:04.491Z,8.95
2019-01-25T17:29:34.670Z,8.10
2019-01-25T17:32:05.035Z,8.00
2019-01-25T17:34:35.195Z,9.63
2019-01-25T17:37:05.676Z,7.90
2019-01-25T17:39:35.848Z,9.20
2019-01-25T17:42:06.818Z,10.03
2019-01-25T17:44:41.303Z,11.40
2019-01-25T17:47:08.854Z,11.08
2019-01-25T17:49:39.022Z,7.53
2019-01-25T17:52:09.294Z,9.85
2019-01-25T17:54:39.463Z,12.10
2019-01-25T17:57:09.623Z,12.15
2019-01-25T17:59:39.917Z,12.78
2019-01-25T18:02:10.043Z,12.33
2019-01-25T18:04:40.198Z,13.83
2019-01-25T18:07:10.376Z,11.65
2019-01-25T18:09:40.505Z,10.55
2019-01-25T18:12:10.684Z,15.20
2019-01-25T18:14:40.821Z,14.13
2019-01-25T18:17:10.973Z,13.68
2019-01-25T18:19:41.119Z,14.47
2019-01-25T18:22:11.363Z,14.78
2019-01-25T18:24:41.778Z,13.25
2019-01-25T18:27:11.976Z,13.65
2019-01-25T18:29:42.285Z,13.48
2019-01-25T18:32:12.493Z,15.50
2019-01-25T18:34:42.708Z,12.78
2019-01-25T18:37:12.853Z,14.80
2019-01-25T18:39:43.015Z,14.63
2019-01-25T18:42:13.358Z,13.15
2019-01-25T18:44:43.500Z,13.15
2019-01-25T18:47:13.926Z,14.07
2019-01-25T18:49:44.064Z,13.83
2019-01-25T18:52:14.280Z,13.53
2019-01-25T18:54:44.450Z,17.57
2019-01-25T18:57:14.810Z,12.53
2019-01-25T18:59:44.944Z,14.43
2019-01-25T19:02:15.110Z,15.88
2019-01-25T19:04:45.326Z,16.10
2019-01-25T19:07:15.473Z,15.05
2019-01-25T19:09:45.636Z,14.98
2019-01-25T19:12:15.883Z,12.33
2019-01-25T19:14:46.053Z,12.33
2019-01-25T19:17:16.253Z,11.28
2019-01-25T19:19:46.375Z,13.13
2019-01-25T19:22:16.653Z,14.45
2019-01-25T19:24:46.809Z,14.43
2019-01-25T19:27:16.940Z,16.23
2019-01-25T19:29:47.118Z,15.60
2019-01-25T19:32:17.365Z,16.42
2019-01-25T19:34:47.554Z,15.13
2019-01-25T19:37:17.728Z,13.03
2019-01-25T19:39:47.877Z,16.35
2019-01-25T19:42:18.034Z,16.20
2019-01-25T19:44:48.206Z,17.30
2019-01-25T19:47:19.605Z,19.32
2019-01-25T19:49:49.691Z,15.90
2019-01-25T19:52:19.828Z,14.58
2019-01-25T19:54:50.040Z,14.65
2019-01-25T19:57:20.290Z,15.05
2019-01-25T19:59:50.434Z,16.60
2019-01-25T20:02:20.766Z,19.12
2019-01-25T20:04:50.934Z,19.40
2019-01-25T20:07:21.175Z,16.60
2019-01-25T20:09:51.424Z,17.92
2019-01-25T20:12:21.719Z,17.77
2019-01-25T20:14:51.989Z,17.50
2019-01-25T20:17:22.247Z,13.18
2019-01-25T20:19:52.436Z,18.05
2019-01-25T20:22:22.644Z,14.23
2019-01-25T20:24:52.893Z,13.83
2019-01-25T20:27:23.098Z,16.97
2019-01-25T20:29:53.311Z,14.40
2019-01-25T20:32:23.481Z,17.42
2019-01-25T20:34:53.669Z,13.72
2019-01-25T20:37:23.830Z,10.30
2019-01-25T20:39:54.237Z,16.00
2019-01-25T20:43:43.591Z,13.28
2019-01-25T20:46:13.778Z,19.92
2019-01-25T20:48:43.966Z,17.85
2019-01-25T20:51:14.595Z,16.80
2019-01-25T20:53:44.773Z,14.28
2019-01-25T20:56:14.936Z,16.10
2019-01-25T20:58:45.133Z,14.20
2019-01-25T21:01:15.287Z,15.78
2019-01-25T21:03:45.458Z,14.03
2019-01-25T21:10:20.566Z,11.97
2019-01-25T21:12:50.899Z,15.63
2019-01-25T21:15:24.699Z,14.30
2019-01-25T21:17:55.785Z,17.90
2019-01-25T21:20:33.228Z,14.58
2019-01-25T21:23:05.274Z,14.40
2019-01-25T21:25:35.621Z,16.57
2019-01-25T21:28:06.512Z,16.82
2019-01-25T21:30:38.029Z,15.03
2019-01-25T21:34:21.699Z,13.18
2019-01-25T21:36:51.985Z,18.48
2019-01-25T21:39:22.142Z,20.85
2019-01-25T21:41:52.388Z,18.85
2019-01-25T21:44:22.910Z,16.90
2019-01-25T21:46:53.059Z,13.93
2019-01-25T21:49:23.229Z,22.62
2019-01-25T21:51:53.550Z,19.52
2019-01-25T21:54:23.710Z,16.82
2019-01-25T21:56:54.181Z,19.23
2019-01-25T21:59:24.315Z,18.45
2019-01-25T22:01:54.488Z,16.90
2019-01-25T22:04:24.655Z,14.23
2019-01-25T22:06:54.827Z,16.12
2019-01-25T22:09:24.993Z,15.72
2019-01-25T22:11:55.135Z,18.75
2019-01-25T22:14:25.352Z,16.65
2019-01-25T22:16:55.572Z,16.85
2019-01-25T22:19:26.166Z,15.85
2019-01-25T22:21:56.388Z,15.58
2019-01-25T22:24:26.603Z,18.10
2019-01-25T22:26:56.792Z,18.20
2019-01-25T22:29:26.987Z,15.10
2019-01-25T22:31:57.148Z,22.10
2019-01-25T22:34:27.321Z,17.82
2019-01-25T22:36:57.534Z,13.10
2019-01-25T22:39:27.656Z,16.77
2019-01-25T22:41:57.904Z,19.05
2019-01-25T22:44:28.092Z,17.82
2019-01-25T22:46:58.295Z,15.18
2019-01-25T22:49:28.502Z,19.90
2019-01-25T22:51:58.703Z,15.68
2019-01-25T22:54:28.902Z,17.23
2019-01-25T22:56:59.058Z,16.73
2019-01-25T22:59:29.218Z,13.88
2019-01-25T23:01:59.484Z,17.52
2019-01-25T23:04:34.336Z,19.35
2019-01-25T23:07:05.593Z,18.45
2019-01-25T23:09:35.765Z,19.02
2019-01-25T23:12:06.553Z,18.05
2019-01-25T23:14:36.720Z,17.60
2019-01-25T23:17:06.929Z,16.67
2019-01-25T23:19:37.088Z,14.03
2019-01-25T23:22:07.413Z,14.13
2019-01-25T23:24:37.617Z,9.08
2019-01-25T23:27:07.782Z,15.45
2019-01-25T23:29:37.932Z,13.13
2019-01-25T23:32:08.528Z,16.02
2019-01-25T23:34:38.671Z,19.10
2019-01-25T23:37:08.816Z,17.82
2019-01-25T23:39:38.982Z,15.55
2019-01-25T23:42:09.130Z,14.87
2019-01-25T23:44:39.335Z,19.37
2019-01-25T23:47:09.504Z,15.65
2019-01-25T23:49:39.663Z,15.55
2019-01-25T23:52:09.820Z,18.65
2019-01-25T23:54:39.974Z,16.37
2019-01-25T23:57:10.215Z,15.10
2019-01-25T23:59:40.368Z,16.80
